Time;durP1;ratioP1;P1;durP2;ratioP2;P2;SDS_P1;SDS_P2;PMS_P1;PMS_P2;Temp;Humidity;BMP_temperature;BMP_pressure;BME280_temperature;BME280_humidity;BME280_pressure;Samples;Min_cycle;Max_cycle;Signal;HPM_P1;HPM_P2
2023/04/06 00:00:12;;;;;;;6.10;4.10;;;;;;;;;;6208888;23;20430;-71
2023/04/06 00:02:38;;;;;;;4.00;3.70;;;;;;;;;;6211933;23;20390;-65
2023/04/06 00:05:04;;;;;;;3.90;3.70;;;;;;;;;;6209501;23;20391;-65
2023/04/06 00:07:30;;;;;;;5.53;3.73;;;;;;;;;;6211698;23;20379;-65
2023/04/06 00:09:56;;;;;;;4.30;3.53;;;;;;;;;;6211365;23;20386;-66
2023/04/06 00:12:22;;;;;;;8.70;2.87;;;;;;;;;;6184847;23;20765;-67
2023/04/06 00:14:48;;;;;;;11.70;3.93;;;;;;;;;;6159694;23;20735;-65
2023/04/06 00:17:14;;;;;;;2.30;2.30;;;;;;;;;;6211446;23;20387;-66
2023/04/06 00:19:40;;;;;;;5.07;3.67;;;;;;;;;;6211361;23;20386;-65
2023/04/06 00:22:06;;;;;;;3.23;3.13;;;;;;;;;;6211288;23;20390;-66
2023/04/06 00:24:32;;;;;;;5.13;3.00;;;;;;;;;;6211137;23;20371;-65
2023/04/06 00:26:58;;;;;;;3.00;2.90;;;;;;;;;;6210505;23;20379;-65
2023/04/06 00:29:24;;;;;;;3.00;2.90;;;;;;;;;;6211527;23;20405;-66
2023/04/06 00:31:50;;;;;;;3.70;2.33;;;;;;;;;;6211416;23;20461;-67
2023/04/06 00:34:16;;;;;;;3.33;3.13;;;;;;;;;;6211380;23;20430;-66
2023/04/06 00:36:42;;;;;;;2.77;2.63;;;;;;;;;;6210493;23;20451;-65
2023/04/06 00:39:08;;;;;;;3.27;3.17;;;;;;;;;;6211360;23;20837;-66
2023/04/06 00:41:34;;;;;;;2.53;2.33;;;;;;;;;;6209903;23;20390;-65
2023/04/06 00:44:00;;;;;;;2.67;2.50;;;;;;;;;;6209764;23;20943;-65
2023/04/06 00:46:26;;;;;;;2.50;2.40;;;;;;;;;;6209540;23;20431;-69
2023/04/06 00:48:52;;;;;;;3.20;2.63;;;;;;;;;;6211391;23;20822;-65
2023/04/06 00:51:18;;;;;;;2.97;2.53;;;;;;;;;;6209188;23;20419;-64
2023/04/06 00:53:44;;;;;;;4.30;3.00;;;;;;;;;;6210500;23;20383;-65
2023/04/06 00:56:10;;;;;;;4.07;3.80;;;;;;;;;;6208865;23;20754;-68
2023/04/06 00:58:38;;;;;;;3.27;3.17;;;;;;;;;;6210830;23;20386;-66
2023/04/06 01:01:05;;;;;;;3.13;3.03;;;;;;;;;;6208820;23;20402;-65
2023/04/06 01:03:31;;;;;;;2.20;2.10;;;;;;;;;;6211443;23;20375;-68
2023/04/06 01:05:58;;;;;;;2.17;2.17;;;;;;;;;;6210444;23;20700;-70
2023/04/06 01:08:24;;;;;;;3.83;2.13;;;;;;;;;;6209883;23;20430;-69
2023/04/06 01:10:50;;;;;;;3.47;3.17;;;;;;;;;;6210394;23;20391;-65
2023/04/06 01:13:16;;;;;;;2.63;2.53;;;;;;;;;;6209185;23;20419;-65
2023/04/06 01:15:42;;;;;;;2.90;2.70;;;;;;;;;;6210255;23;20446;-65
2023/04/06 01:18:12;;;;;;;2.90;2.80;;;;;;;;;;6210775;23;20379;-65
2023/04/06 01:20:38;;;;;;;4.60;2.87;;;;;;;;;;6210796;23;20445;-65
2023/04/06 01:23:04;;;;;;;3.73;3.03;;;;;;;;;;6210862;23;20379;-68
2023/04/06 01:25:30;;;;;;;3.60;3.30;;;;;;;;;;6209959;23;20383;-65
2023/04/06 01:27:57;;;;;;;3.27;2.73;;;;;;;;;;6210793;23;20478;-66
2023/04/06 01:30:23;;;;;;;5.30;3.47;;;;;;;;;;6209716;23;20389;-66
2023/04/06 01:32:49;;;;;;;3.53;2.70;;;;;;;;;;6209407;23;20399;-68
2023/04/06 01:35:16;;;;;;;3.10;2.90;;;;;;;;;;6210686;23;20437;-66
2023/04/06 01:37:42;;;;;;;3.07;2.87;;;;;;;;;;6210606;23;20526;-65
2023/04/06 01:40:08;;;;;;;9.20;3.53;;;;;;;;;;6210046;23;21196;-64
2023/04/06 01:42:34;;;;;;;3.77;3.57;;;;;;;;;;6210789;23;20375;-67
2023/04/06 01:45:00;;;;;;;3.60;3.50;;;;;;;;;;6210476;23;20448;-64
2023/04/06 01:47:26;;;;;;;3.10;3.00;;;;;;;;;;6210918;23;20387;-65
2023/04/06 01:49:52;;;;;;;2.60;2.50;;;;;;;;;;6210661;23;20861;-65
2023/04/06 01:52:18;;;;;;;2.73;2.63;;;;;;;;;;6210484;23;20469;-64
2023/04/06 01:54:44;;;;;;;3.10;2.90;;;;;;;;;;6210166;23;20379;-65
2023/04/06 01:57:11;;;;;;;2.87;2.33;;;;;;;;;;6210788;23;20703;-65
2023/04/06 01:59:36;;;;;;;3.47;3.27;;;;;;;;;;6209878;23;20371;-65
2023/04/06 02:02:02;;;;;;;2.80;2.70;;;;;;;;;;6210387;23;20387;-65
2023/04/06 02:04:28;;;;;;;2.70;2.60;;;;;;;;;;6210514;23;20379;-65
2023/04/06 02:06:54;;;;;;;9.47;3.00;;;;;;;;;;6210254;23;20390;-69
2023/04/06 02:09:20;;;;;;;2.77;2.77;;;;;;;;;;6210073;23;20390;-69
2023/04/06 02:11:46;;;;;;;2.60;2.50;;;;;;;;;;6210115;23;20546;-65
2023/04/06 02:14:12;;;;;;;2.90;2.77;;;;;;;;;;6210502;23;20704;-67
2023/04/06 02:16:38;;;;;;;2.70;2.60;;;;;;;;;;6209905;23;20462;-65
2023/04/06 02:19:04;;;;;;;2.67;2.47;;;;;;;;;;6210127;23;20371;-66
2023/04/06 02:21:30;;;;;;;2.87;2.77;;;;;;;;;;6209965;23;20387;-65
2023/04/06 02:23:56;;;;;;;2.70;2.70;;;;;;;;;;6208110;23;20386;-65
2023/04/06 02:26:23;;;;;;;3.23;2.73;;;;;;;;;;6210057;23;20387;-65
2023/04/06 02:28:49;;;;;;;3.03;2.70;;;;;;;;;;6209853;23;20363;-64
2023/04/06 02:31:15;;;;;;;2.87;2.60;;;;;;;;;;6209940;23;20861;-66
2023/04/06 02:33:41;;;;;;;2.80;2.70;;;;;;;;;;6209750;23;20398;-65
2023/04/06 02:36:07;;;;;;;2.60;2.50;;;;;;;;;;6210413;23;20760;-66
2023/04/06 02:38:33;;;;;;;2.67;2.60;;;;;;;;;;6209989;23;20437;-65
2023/04/06 02:41:00;;;;;;;3.53;3.00;;;;;;;;;;6209165;23;20391;-65
2023/04/06 02:43:26;;;;;;;5.13;3.13;;;;;;;;;;6209811;23;20496;-66
2023/04/06 02:45:52;;;;;;;3.00;2.80;;;;;;;;;;6209899;23;20434;-65
2023/04/06 02:48:17;;;;;;;2.67;2.47;;;;;;;;;;6209470;23;20436;-67
2023/04/06 02:50:44;;;;;;;2.03;2.03;;;;;;;;;;6209605;23;20469;-65
2023/04/06 02:53:10;;;;;;;13.13;5.63;;;;;;;;;;6209783;23;20383;-65
2023/04/06 02:55:36;;;;;;;5.63;3.50;;;;;;;;;;6209551;23;20434;-66
2023/04/06 02:58:01;;;;;;;6.30;3.53;;;;;;;;;;6209813;23;20367;-64
2023/04/06 03:00:28;;;;;;;6.67;4.20;;;;;;;;;;6207406;23;20413;-65
2023/04/06 03:02:54;;;;;;;3.70;3.40;;;;;;;;;;6210108;23;20383;-65
2023/04/06 03:05:20;;;;;;;4.60;3.43;;;;;;;;;;6209937;23;21181;-65
2023/04/06 03:07:46;;;;;;;3.30;3.17;;;;;;;;;;6210381;23;20383;-67
2023/04/06 03:10:12;;;;;;;5.20;3.10;;;;;;;;;;6208535;23;20398;-68
2023/04/06 03:12:38;;;;;;;6.80;3.50;;;;;;;;;;6209226;23;20426;-68
2023/04/06 03:15:05;;;;;;;4.23;2.90;;;;;;;;;;6209743;23;20784;-65
2023/04/06 03:17:30;;;;;;;2.87;2.67;;;;;;;;;;6183471;23;20391;-66
2023/04/06 03:19:56;;;;;;;3.17;2.97;;;;;;;;;;6210096;23;20462;-65
2023/04/06 03:22:22;;;;;;;2.87;2.63;;;;;;;;;;6209234;23;20390;-67
2023/04/06 03:24:48;;;;;;;3.03;2.83;;;;;;;;;;6209528;23;20379;-69
2023/04/06 03:27:14;;;;;;;4.93;2.87;;;;;;;;;;6209643;23;20856;-71
2023/04/06 03:29:40;;;;;;;2.43;2.23;;;;;;;;;;6210251;23;20417;-70
2023/04/06 03:32:06;;;;;;;3.30;3.00;;;;;;;;;;6210475;23;20379;-66
2023/04/06 03:34:32;;;;;;;2.70;2.50;;;;;;;;;;6212216;23;20371;-67
2023/04/06 03:36:58;;;;;;;3.20;3.00;;;;;;;;;;6211780;23;20500;-67
2023/04/06 03:39:24;;;;;;;2.93;2.80;;;;;;;;;;6211666;23;21192;-67
2023/04/06 03:41:50;;;;;;;2.67;2.57;;;;;;;;;;6211461;23;20379;-70
2023/04/06 03:44:16;;;;;;;2.90;2.80;;;;;;;;;;6212174;23;20375;-66
2023/04/06 03:46:42;;;;;;;8.83;3.53;;;;;;;;;;6211552;23;20715;-71
2023/04/06 03:49:08;;;;;;;2.43;2.20;;;;;;;;;;6212197;23;20375;-69
2023/04/06 03:51:34;;;;;;;2.53;2.43;;;;;;;;;;6211626;23;20720;-66
2023/04/06 03:54:00;;;;;;;3.87;2.77;;;;;;;;;;6211419;23;20980;-65
2023/04/06 03:56:26;;;;;;;2.50;2.40;;;;;;;;;;6211805;23;20445;-67
2023/04/06 03:58:52;;;;;;;3.03;2.83;;;;;;;;;;6211627;23;20381;-69
2023/04/06 04:01:18;;;;;;;3.13;2.93;;;;;;;;;;6211484;23;20394;-67
2023/04/06 04:03:44;;;;;;;5.57;2.97;;;;;;;;;;6211110;23;21129;-69
2023/04/06 04:06:10;;;;;;;2.67;2.57;;;;;;;;;;6211040;23;20880;-68
2023/04/06 04:08:36;;;;;;;3.33;3.13;;;;;;;;;;6211685;23;20378;-66
2023/04/06 04:11:02;;;;;;;3.30;2.80;;;;;;;;;;6210953;23;20469;-68
2023/04/06 04:13:28;;;;;;;3.23;3.10;;;;;;;;;;6211415;23;20384;-68
2023/04/06 04:15:54;;;;;;;2.77;2.67;;;;;;;;;;6211182;23;20497;-65
2023/04/06 04:18:20;;;;;;;6.60;3.33;;;;;;;;;;6211729;23;20386;-64
2023/04/06 04:20:46;;;;;;;2.77;2.67;;;;;;;;;;6211379;23;20922;-66
2023/04/06 04:23:12;;;;;;;3.03;2.93;;;;;;;;;;6211393;23;20769;-65
2023/04/06 04:25:38;;;;;;;4.10;2.57;;;;;;;;;;6210858;23;20383;-67
2023/04/06 04:28:04;;;;;;;2.40;2.30;;;;;;;;;;6211687;23;20390;-66
2023/04/06 04:30:30;;;;;;;3.37;3.13;;;;;;;;;;6211551;23;20393;-64
2023/04/06 04:32:56;;;;;;;3.30;2.97;;;;;;;;;;6211339;23;20383;-65
2023/04/06 04:35:22;;;;;;;2.87;2.70;;;;;;;;;;6211079;23;20946;-66
2023/04/06 04:37:48;;;;;;;4.17;2.97;;;;;;;;;;6211218;23;20461;-66
2023/04/06 04:40:15;;;;;;;3.17;2.97;;;;;;;;;;6211030;23;20458;-65
2023/04/06 04:42:41;;;;;;;3.17;2.97;;;;;;;;;;6211139;23;20379;-65
2023/04/06 04:45:07;;;;;;;2.70;2.53;;;;;;;;;;6211339;23;20386;-65
2023/04/06 04:47:33;;;;;;;3.03;2.93;;;;;;;;;;6211235;23;20386;-69
2023/04/06 04:49:59;;;;;;;4.20;3.07;;;;;;;;;;6211358;23;20375;-65
2023/04/06 04:52:25;;;;;;;3.77;3.37;;;;;;;;;;6210955;23;20388;-65
2023/04/06 04:54:51;;;;;;;14.73;6.60;;;;;;;;;;6210866;23;20381;-65
2023/04/06 04:57:17;;;;;;;8.73;6.20;;;;;;;;;;6211265;23;20384;-65
2023/04/06 04:59:43;;;;;;;8.00;3.23;;;;;;;;;;6211126;23;20387;-65
2023/04/06 05:02:09;;;;;;;3.73;3.43;;;;;;;;;;6210757;23;20426;-65
2023/04/06 05:04:36;;;;;;;4.93;4.10;;;;;;;;;;6210972;23;20379;-65
2023/04/06 05:07:05;;;;;;;3.93;3.53;;;;;;;;;;6210745;23;20927;-65
2023/04/06 05:09:31;;;;;;;5.37;4.87;;;;;;;;;;6210910;23;20909;-64
2023/04/06 05:11:57;;;;;;;4.10;3.70;;;;;;;;;;6210817;23;20429;-65
2023/04/06 05:14:23;;;;;;;3.43;3.13;;;;;;;;;;6209324;23;20395;-65
2023/04/06 05:16:49;;;;;;;8.80;3.60;;;;;;;;;;6206242;23;20508;-66
2023/04/06 05:19:15;;;;;;;9.53;3.50;;;;;;;;;;6209515;23;20916;-68
2023/04/06 05:21:41;;;;;;;3.03;2.90;;;;;;;;;;6209401;23;20748;-65
2023/04/06 05:24:08;;;;;;;4.83;3.87;;;;;;;;;;6210183;23;20860;-66
2023/04/06 05:26:34;;;;;;;4.40;3.90;;;;;;;;;;6210090;23;20386;-68
2023/04/06 05:29:00;;;;;;;3.33;3.10;;;;;;;;;;6210443;23;20434;-66
2023/04/06 05:31:26;;;;;;;4.37;3.57;;;;;;;;;;6209233;23;20920;-65
2023/04/06 05:33:52;;;;;;;2.63;2.53;;;;;;;;;;6209955;23;20390;-65
2023/04/06 05:36:18;;;;;;;2.33;2.23;;;;;;;;;;6209692;23;20462;-65
2023/04/06 05:38:44;;;;;;;2.50;2.40;;;;;;;;;;6209899;23;20711;-66
2023/04/06 05:41:10;;;;;;;11.07;4.83;;;;;;;;;;6183628;23;20387;-67
2023/04/06 05:43:37;;;;;;;2.60;2.50;;;;;;;;;;6210313;23;20375;-66
2023/04/06 05:46:03;;;;;;;2.47;2.37;;;;;;;;;;6209251;23;20390;-64
2023/04/06 05:48:29;;;;;;;4.30;3.93;;;;;;;;;;6209114;23;20436;-64
2023/04/06 05:50:55;;;;;;;2.90;2.70;;;;;;;;;;6209647;23;20383;-64
2023/04/06 05:53:21;;;;;;;2.93;2.80;;;;;;;;;;6209738;23;20386;-65
2023/04/06 05:55:47;;;;;;;3.33;3.13;;;;;;;;;;6208882;23;20907;-65
2023/04/06 05:58:13;;;;;;;4.73;4.10;;;;;;;;;;6209936;23;20423;-67
2023/04/06 06:00:39;;;;;;;6.80;6.17;;;;;;;;;;6206475;23;20437;-65
2023/04/06 06:03:05;;;;;;;5.47;5.07;;;;;;;;;;6203452;23;20525;-65
2023/04/06 06:05:31;;;;;;;12.57;8.50;;;;;;;;;;6209256;23;20385;-68
2023/04/06 06:07:57;;;;;;;24.43;13.83;;;;;;;;;;6207072;23;20473;-69
2023/04/06 06:10:23;;;;;;;10.40;8.60;;;;;;;;;;6200342;23;20386;-66
2023/04/06 06:12:49;;;;;;;8.23;7.17;;;;;;;;;;6208211;23;20387;-65
2023/04/06 06:15:15;;;;;;;10.50;7.87;;;;;;;;;;6209549;23;20422;-65
2023/04/06 06:17:41;;;;;;;8.50;6.03;;;;;;;;;;6209986;23;20388;-65
2023/04/06 06:20:08;;;;;;;6.60;5.30;;;;;;;;;;6209607;23;20455;-65
2023/04/06 06:22:34;;;;;;;7.53;5.90;;;;;;;;;;6209443;23;20379;-65
2023/04/06 06:25:00;;;;;;;4.33;4.03;;;;;;;;;;6209097;23;20387;-66
2023/04/06 06:27:26;;;;;;;4.07;3.57;;;;;;;;;;6209684;23;20379;-65
2023/04/06 06:29:52;;;;;;;3.97;3.67;;;;;;;;;;6210332;23;20379;-66
2023/04/06 06:32:18;;;;;;;5.97;5.27;;;;;;;;;;6209757;23;20383;-62
2023/04/06 06:34:44;;;;;;;8.83;8.00;;;;;;;;;;6207097;23;20490;-62
2023/04/06 06:37:10;;;;;;;9.73;8.60;;;;;;;;;;6191602;23;20467;-65
2023/04/06 06:39:36;;;;;;;8.67;5.93;;;;;;;;;;6149291;23;20798;-65
2023/04/06 06:42:02;;;;;;;7.03;6.23;;;;;;;;;;6149901;23;20473;-70
2023/04/06 06:44:29;;;;;;;5.20;4.80;;;;;;;;;;6149809;23;20816;-65
2023/04/06 06:46:55;;;;;;;4.67;4.27;;;;;;;;;;6150295;23;20400;-65
2023/04/06 06:49:21;;;;;;;4.73;4.30;;;;;;;;;;6150915;23;20407;-66
2023/04/06 06:51:47;;;;;;;4.20;3.60;;;;;;;;;;6149896;23;20377;-65
2023/04/06 06:54:13;;;;;;;5.90;3.50;;;;;;;;;;6149110;23;20711;-67
2023/04/06 06:56:39;;;;;;;3.90;3.60;;;;;;;;;;6148772;23;20463;-65
2023/04/06 06:59:06;;;;;;;3.83;3.63;;;;;;;;;;6149656;23;20424;-65
2023/04/06 07:01:33;;;;;;;5.27;4.50;;;;;;;;;;6150640;23;20388;-65
2023/04/06 07:03:59;;;;;;;6.83;3.30;;;;;;;;;;6150252;23;20828;-65
2023/04/06 07:06:25;;;;;;;3.27;3.00;;;;;;;;;;6148914;23;20884;-66
2023/04/06 07:08:51;;;;;;;2.57;2.47;;;;;;;;;;6150109;23;20392;-66
2023/04/06 07:11:17;;;;;;;2.87;2.70;;;;;;;;;;6149966;23;20384;-65
2023/04/06 07:13:43;;;;;;;3.30;3.20;;;;;;;;;;6150473;23;20385;-65
2023/04/06 07:16:09;;;;;;;5.17;4.70;;;;;;;;;;6149966;23;20494;-65
2023/04/06 07:18:35;;;;;;;11.10;3.80;;;;;;;;;;6149942;23;20432;-66
2023/04/06 07:21:01;;;;;;;4.10;3.70;;;;;;;;;;6149275;23;20373;-65
2023/04/06 07:23:27;;;;;;;4.40;4.20;;;;;;;;;;6149649;23;20389;-66
2023/04/06 07:25:54;;;;;;;3.97;3.53;;;;;;;;;;6149984;23;20381;-65
2023/04/06 07:28:20;;;;;;;4.57;2.77;;;;;;;;;;6149811;23;20396;-67
2023/04/06 07:30:46;;;;;;;4.20;4.00;;;;;;;;;;6149968;23;20396;-61
2023/04/06 07:33:12;;;;;;;5.60;3.87;;;;;;;;;;6150195;23;20385;-68
2023/04/06 07:35:39;;;;;;;3.27;3.07;;;;;;;;;;6148169;23;20431;-66
2023/04/06 07:38:05;;;;;;;3.17;3.07;;;;;;;;;;6193150;23;20520;-65
2023/04/06 07:40:32;;;;;;;3.70;3.40;;;;;;;;;;6208857;23;20421;-69
2023/04/06 07:42:58;;;;;;;4.00;3.87;;;;;;;;;;6209151;23;20705;-69
2023/04/06 07:45:24;;;;;;;3.70;3.50;;;;;;;;;;6209103;23;20865;-69
2023/04/06 07:47:50;;;;;;;4.63;4.33;;;;;;;;;;6208892;23;20912;-69
2023/04/06 07:50:16;;;;;;;4.63;4.33;;;;;;;;;;6207649;23;20484;-69
2023/04/06 07:52:42;;;;;;;4.03;3.83;;;;;;;;;;6209997;23;20411;-69
2023/04/06 07:55:08;;;;;;;4.50;4.20;;;;;;;;;;6209119;23;20387;-69
2023/04/06 07:57:34;;;;;;;4.40;4.10;;;;;;;;;;6209678;23;20391;-69
2023/04/06 08:00:00;;;;;;;4.73;4.37;;;;;;;;;;6209447;23;20901;-65
2023/04/06 08:02:26;;;;;;;4.63;3.20;;;;;;;;;;6206470;23;20740;-67
2023/04/06 08:04:52;;;;;;;6.93;4.10;;;;;;;;;;6209414;23;20379;-66
2023/04/06 08:07:18;;;;;;;3.97;3.87;;;;;;;;;;6209778;23;20868;-65
2023/04/06 08:09:44;;;;;;;4.20;4.10;;;;;;;;;;6207103;23;20861;-66
2023/04/06 08:12:10;;;;;;;3.80;3.63;;;;;;;;;;6209577;23;20402;-66
2023/04/06 08:14:36;;;;;;;4.40;4.20;;;;;;;;;;6209730;23;20380;-65
2023/04/06 08:17:02;;;;;;;5.10;4.90;;;;;;;;;;6209496;23;20461;-66
2023/04/06 08:19:28;;;;;;;3.80;3.60;;;;;;;;;;6211673;23;20407;-65
2023/04/06 08:21:54;;;;;;;3.90;3.57;;;;;;;;;;6211133;23;20390;-65
2023/04/06 08:24:20;;;;;;;4.00;3.40;;;;;;;;;;6210901;23;20418;-66
2023/04/06 08:26:46;;;;;;;6.37;3.70;;;;;;;;;;6210934;23;20379;-66
2023/04/06 08:29:12;;;;;;;5.60;5.30;;;;;;;;;;6211751;23;20429;-65
2023/04/06 08:31:38;;;;;;;7.50;4.20;;;;;;;;;;6210934;23;20402;-68
2023/04/06 08:34:05;;;;;;;4.23;4.03;;;;;;;;;;6211063;23;20523;-66
2023/04/06 08:36:31;;;;;;;8.60;4.13;;;;;;;;;;6210997;23;20435;-67
2023/04/06 08:38:57;;;;;;;6.23;4.23;;;;;;;;;;6209390;23;20371;-66
2023/04/06 08:41:23;;;;;;;4.27;3.97;;;;;;;;;;6210505;23;20383;-66
2023/04/06 08:43:50;;;;;;;3.70;3.40;;;;;;;;;;6209726;23;20719;-65
2023/04/06 08:46:16;;;;;;;4.00;3.90;;;;;;;;;;6183902;23;20383;-66
2023/04/06 08:48:43;;;;;;;4.63;4.43;;;;;;;;;;6210903;23;20371;-66
2023/04/06 08:51:10;;;;;;;5.13;4.60;;;;;;;;;;6210781;23;20421;-58
2023/04/06 08:53:37;;;;;;;4.57;4.17;;;;;;;;;;6210579;23;20399;-59
2023/04/06 08:56:04;;;;;;;7.53;3.90;;;;;;;;;;6210797;23;20545;-60
2023/04/06 08:58:33;;;;;;;5.43;4.27;;;;;;;;;;6211737;23;20478;-67
2023/04/06 09:01:00;;;;;;;4.30;4.20;;;;;;;;;;6210486;23;20380;-68
2023/04/06 09:03:26;;;;;;;8.13;4.30;;;;;;;;;;6211752;23;20394;-70
2023/04/06 09:05:52;;;;;;;4.87;4.57;;;;;;;;;;6210349;23;20481;-68
2023/04/06 09:08:18;;;;;;;4.43;4.23;;;;;;;;;;6209747;23;20383;-68
2023/04/06 09:10:45;;;;;;;5.00;4.60;;;;;;;;;;6209854;23;20387;-69
2023/04/06 09:13:11;;;;;;;3.83;3.53;;;;;;;;;;6209400;23;20869;-65
2023/04/06 09:15:37;;;;;;;5.93;3.80;;;;;;;;;;6209037;23;20442;-65
2023/04/06 09:18:03;;;;;;;3.73;3.63;;;;;;;;;;6208715;23;20953;-65
2023/04/06 09:20:29;;;;;;;3.83;3.57;;;;;;;;;;6209671;23;20387;-64
2023/04/06 09:22:55;;;;;;;7.33;4.03;;;;;;;;;;6208245;23;20481;-64
2023/04/06 09:25:22;;;;;;;4.10;3.80;;;;;;;;;;6210945;23;20384;-65
2023/04/06 09:27:49;;;;;;;3.97;3.77;;;;;;;;;;6210796;23;20868;-64
2023/04/06 09:30:16;;;;;;;3.33;3.20;;;;;;;;;;6210195;23;20379;-69
2023/04/06 09:32:53;;;;;;;4.53;4.10;;;;;;;;;;6211052;23;20494;-65
2023/04/06 09:35:22;;;;;;;4.77;4.37;;;;;;;;;;6210642;23;20402;-65
2023/04/06 09:37:48;;;;;;;6.67;4.43;;;;;;;;;;6208855;23;20451;-65
2023/04/06 09:40:17;;;;;;;4.57;3.83;;;;;;;;;;6210578;23;20378;-64
2023/04/06 09:42:43;;;;;;;3.40;3.10;;;;;;;;;;6210879;23;20383;-67
2023/04/06 09:45:10;;;;;;;9.00;3.37;;;;;;;;;;6211011;23;20375;-66
2023/04/06 09:47:37;;;;;;;3.93;3.83;;;;;;;;;;6210891;23;20469;-67
2023/04/06 09:50:03;;;;;;;4.73;4.30;;;;;;;;;;6210629;23;20517;-64
2023/04/06 09:52:32;;;;;;;3.90;3.50;;;;;;;;;;6211043;23;20695;-67
2023/04/06 09:55:03;;;;;;;4.63;3.70;;;;;;;;;;6210292;23;20375;-66
2023/04/06 09:57:32;;;;;;;4.10;3.73;;;;;;;;;;6209022;23;20797;-71
2023/04/06 10:00:07;;;;;;;5.37;4.37;;;;;;;;;;6209940;23;20399;-65
2023/04/06 10:02:33;;;;;;;6.00;4.43;;;;;;;;;;6210361;23;20688;-64
2023/04/06 10:05:02;;;;;;;5.30;4.77;;;;;;;;;;6210111;23;20701;-66
2023/04/06 10:07:29;;;;;;;5.23;4.50;;;;;;;;;;6209906;23;20413;-67
2023/04/06 10:09:55;;;;;;;4.77;4.33;;;;;;;;;;6209982;23;20461;-69
2023/04/06 10:12:21;;;;;;;4.30;4.20;;;;;;;;;;6209869;23;20868;-67
2023/04/06 10:14:48;;;;;;;3.63;3.43;;;;;;;;;;6211144;23;20461;-67
2023/04/06 10:17:14;;;;;;;5.70;5.17;;;;;;;;;;6209716;23;20521;-65
2023/04/06 10:19:45;;;;;;;7.37;5.07;;;;;;;;;;6210378;23;20492;-67
2023/04/06 10:22:13;;;;;;;7.13;4.37;;;;;;;;;;6210385;23;20387;-71
2023/04/06 10:24:39;;;;;;;4.67;4.30;;;;;;;;;;6209979;23;20830;-71
2023/04/06 10:27:06;;;;;;;9.63;6.90;;;;;;;;;;6210470;23;20375;-74
2023/04/06 10:29:51;;;;;;;6.80;5.23;;;;;;;;;;6210527;23;20908;-70
2023/04/06 10:32:17;;;;;;;11.53;6.40;;;;;;;;;;6210327;23;20387;-73
2023/04/06 10:34:43;;;;;;;9.33;5.20;;;;;;;;;;6210187;23;20382;-69
2023/04/06 10:37:16;;;;;;;4.63;4.30;;;;;;;;;;6206264;23;20446;-69
2023/04/06 10:39:54;;;;;;;5.70;3.90;;;;;;;;;;6209164;23;20853;-72
2023/04/06 10:42:25;;;;;;;4.50;3.77;;;;;;;;;;6209527;23;20371;-66
2023/04/06 10:44:51;;;;;;;4.57;4.20;;;;;;;;;;6209640;23;20398;-66
2023/04/06 10:47:18;;;;;;;3.47;3.27;;;;;;;;;;6209700;23;20380;-67
2023/04/06 10:49:44;;;;;;;4.10;3.67;;;;;;;;;;6209372;23;20379;-69
2023/04/06 10:52:11;;;;;;;4.90;3.53;;;;;;;;;;6209255;23;20386;-68
2023/04/06 10:54:40;;;;;;;3.80;3.60;;;;;;;;;;6209462;23;20382;-73
2023/04/06 10:57:06;;;;;;;3.30;3.10;;;;;;;;;;6209475;23;20441;-69
2023/04/06 10:59:32;;;;;;;4.00;3.50;;;;;;;;;;6209607;23;20375;-72
2023/04/06 11:01:58;;;;;;;3.80;3.70;;;;;;;;;;6209121;23;20379;-68
2023/04/06 11:04:25;;;;;;;5.20;4.73;;;;;;;;;;6210230;23;21013;-71
2023/04/06 11:06:51;;;;;;;14.43;7.07;;;;;;;;;;6209283;23;20517;-65
2023/04/06 11:09:35;;;;;;;6.20;4.53;;;;;;;;;;6208886;23;21006;-68
2023/04/06 11:12:01;;;;;;;4.47;4.27;;;;;;;;;;6208977;23;20382;-66
2023/04/06 11:14:27;;;;;;;4.70;4.30;;;;;;;;;;6209325;23;20383;-66
2023/04/06 11:16:52;;;;;;;4.50;4.10;;;;;;;;;;6209256;23;20439;-66
2023/04/06 11:19:19;;;;;;;4.97;4.47;;;;;;;;;;6209471;23;21066;-74
2023/04/06 11:21:49;;;;;;;8.10;4.00;;;;;;;;;;6208789;23;20383;-64
2023/04/06 11:24:16;;;;;;;5.93;5.13;;;;;;;;;;6209094;23;20367;-67
2023/04/06 11:26:43;;;;;;;4.83;4.30;;;;;;;;;;6207568;23;20498;-71
2023/04/06 11:29:10;;;;;;;3.83;3.40;;;;;;;;;;6208565;23;20394;-70
2023/04/06 11:31:40;;;;;;;4.43;4.03;;;;;;;;;;6203735;23;20431;-72
2023/04/06 11:34:10;;;;;;;3.43;3.27;;;;;;;;;;6202588;23;20404;-69
2023/04/06 11:36:36;;;;;;;3.10;2.90;;;;;;;;;;6208162;23;20474;-66
2023/04/06 11:39:04;;;;;;;3.83;3.63;;;;;;;;;;6209739;23;20368;-65
2023/04/06 11:41:32;;;;;;;3.27;3.07;;;;;;;;;;6207518;23;20904;-69
2023/04/06 11:44:01;;;;;;;3.50;3.20;;;;;;;;;;6208719;23;21114;-66
2023/04/06 11:46:27;;;;;;;4.10;3.80;;;;;;;;;;6209482;23;20387;-66
2023/04/06 11:48:58;;;;;;;4.00;3.80;;;;;;;;;;6208227;23;20387;-67
2023/04/06 11:51:24;;;;;;;6.40;4.73;;;;;;;;;;6209471;23;20846;-72
2023/04/06 11:53:50;;;;;;;3.60;3.43;;;;;;;;;;6210969;23;20402;-70
2023/04/06 11:56:26;;;;;;;3.43;3.20;;;;;;;;;;6211319;23;20445;-73
2023/04/06 11:58:53;;;;;;;4.40;3.60;;;;;;;;;;6212002;23;20482;-66
2023/04/06 12:01:19;;;;;;;3.57;3.47;;;;;;;;;;6211284;23;20818;-64
2023/04/06 12:03:45;;;;;;;3.40;3.20;;;;;;;;;;6210899;23;20371;-65
2023/04/06 12:06:11;;;;;;;3.80;3.60;;;;;;;;;;6211962;23;20383;-67
2023/04/06 12:08:37;;;;;;;3.93;3.60;;;;;;;;;;6211342;23;20896;-68
2023/04/06 12:11:03;;;;;;;8.13;3.43;;;;;;;;;;6211089;23;20379;-65
2023/04/06 12:13:29;;;;;;;3.50;3.27;;;;;;;;;;6211082;23;20458;-64
2023/04/06 12:15:55;;;;;;;6.07;4.83;;;;;;;;;;6211131;23;20426;-65
2023/04/06 12:18:21;;;;;;;5.97;4.60;;;;;;;;;;6211580;23;21064;-64
2023/04/06 12:20:47;;;;;;;6.03;4.00;;;;;;;;;;6211604;23;20387;-64
2023/04/06 12:23:13;;;;;;;4.80;4.27;;;;;;;;;;6209537;23;20417;-64
2023/04/06 12:25:41;;;;;;;3.13;3.03;;;;;;;;;;6211422;23;20437;-64
2023/04/06 12:28:07;;;;;;;4.60;4.17;;;;;;;;;;6211587;23;20432;-65
2023/04/06 12:30:33;;;;;;;5.40;3.50;;;;;;;;;;6208602;23;20869;-64
2023/04/06 12:32:59;;;;;;;3.97;3.67;;;;;;;;;;6211444;23;20383;-64
2023/04/06 12:35:25;;;;;;;4.13;3.80;;;;;;;;;;6210993;23;20501;-64
2023/04/06 12:37:51;;;;;;;4.00;3.73;;;;;;;;;;6210777;23;20504;-64
2023/04/06 12:40:17;;;;;;;3.90;3.70;;;;;;;;;;6210700;23;20388;-64
2023/04/06 12:42:43;;;;;;;2.60;2.50;;;;;;;;;;6210538;23;20694;-64
2023/04/06 12:45:09;;;;;;;3.60;3.40;;;;;;;;;;6209108;23;20380;-64
2023/04/06 12:47:36;;;;;;;2.97;2.60;;;;;;;;;;6209681;23;20381;-64
2023/04/06 12:50:02;;;;;;;3.03;2.67;;;;;;;;;;6211139;23;20379;-65
2023/04/06 12:52:31;;;;;;;2.93;2.70;;;;;;;;;;6209607;23;20987;-64
2023/04/06 12:54:58;;;;;;;3.60;3.30;;;;;;;;;;6209228;23;20379;-64
2023/04/06 12:57:24;;;;;;;3.27;3.17;;;;;;;;;;6210456;23;20439;-64
2023/04/06 12:59:51;;;;;;;3.60;3.50;;;;;;;;;;6210256;23;20372;-64
2023/04/06 13:02:17;;;;;;;2.70;2.50;;;;;;;;;;6209814;23;20766;-64
2023/04/06 13:04:43;;;;;;;2.67;2.50;;;;;;;;;;6210823;23;20375;-64
2023/04/06 13:07:09;;;;;;;4.37;3.00;;;;;;;;;;6210186;23;20437;-64
2023/04/06 13:09:35;;;;;;;2.77;2.67;;;;;;;;;;6210636;23;20376;-64
2023/04/06 13:12:01;;;;;;;2.07;1.97;;;;;;;;;;6209670;23;20724;-64
2023/04/06 13:14:27;;;;;;;2.97;2.23;;;;;;;;;;6209483;23;20407;-64
2023/04/06 13:16:53;;;;;;;2.57;2.47;;;;;;;;;;6210708;23;20427;-64
2023/04/06 13:19:19;;;;;;;6.43;3.10;;;;;;;;;;6211641;23;20375;-64
2023/04/06 13:21:45;;;;;;;2.77;2.67;;;;;;;;;;6210919;23;20391;-64
2023/04/06 13:24:11;;;;;;;5.33;2.87;;;;;;;;;;6210621;23;20375;-64
2023/04/06 13:26:37;;;;;;;3.13;3.03;;;;;;;;;;6209277;23;20410;-64
2023/04/06 13:29:03;;;;;;;3.00;2.90;;;;;;;;;;6211004;23;20375;-64
2023/04/06 13:31:30;;;;;;;3.43;3.13;;;;;;;;;;6208549;23;20398;-64
2023/04/06 13:33:56;;;;;;;7.90;3.80;;;;;;;;;;6210718;23;20375;-64
2023/04/06 13:36:22;;;;;;;2.53;2.43;;;;;;;;;;6210367;23;20516;-65
2023/04/06 13:38:48;;;;;;;3.03;2.93;;;;;;;;;;6210606;23;20441;-64
2023/04/06 13:41:25;;;;;;;3.03;2.83;;;;;;;;;;6210462;23;20395;-64
2023/04/06 13:43:51;;;;;;;3.77;2.80;;;;;;;;;;6210391;23;20389;-64
2023/04/06 13:46:17;;;;;;;3.60;3.23;;;;;;;;;;6210831;23;20403;-64
2023/04/06 13:48:43;;;;;;;3.23;3.03;;;;;;;;;;6210231;23;20371;-64
2023/04/06 13:51:12;;;;;;;2.17;2.07;;;;;;;;;;6208799;23;20719;-64
2023/04/06 13:53:39;;;;;;;4.00;3.17;;;;;;;;;;6210489;23;20418;-64
2023/04/06 13:56:05;;;;;;;2.93;2.83;;;;;;;;;;6210477;23;20446;-64
2023/04/06 13:58:31;;;;;;;4.20;3.20;;;;;;;;;;6210176;23;20876;-64
2023/04/06 14:01:05;;;;;;;2.87;2.70;;;;;;;;;;6209487;23;20712;-64
2023/04/06 14:03:31;;;;;;;2.83;2.73;;;;;;;;;;6210470;23;20414;-64
2023/04/06 14:05:57;;;;;;;15.20;4.37;;;;;;;;;;6210365;23;20376;-64
2023/04/06 14:08:23;;;;;;;9.83;2.97;;;;;;;;;;6210487;23;20938;-64
2023/04/06 14:10:49;;;;;;;3.03;2.40;;;;;;;;;;6210364;23;20750;-64
2023/04/06 14:13:15;;;;;;;6.43;4.50;;;;;;;;;;6210719;23;20474;-64
2023/04/06 14:15:41;;;;;;;4.37;3.00;;;;;;;;;;6210118;23;20454;-64
2023/04/06 14:18:08;;;;;;;4.53;3.13;;;;;;;;;;6209646;23;20386;-64
2023/04/06 14:20:34;;;;;;;2.83;2.63;;;;;;;;;;6182431;23;20489;-64
2023/04/06 14:23:01;;;;;;;3.20;3.00;;;;;;;;;;6207431;23;20391;-65
2023/04/06 14:25:27;;;;;;;3.47;3.20;;;;;;;;;;6209136;23;20752;-65
2023/04/06 14:27:53;;;;;;;5.83;3.00;;;;;;;;;;6209048;23;20379;-64
2023/04/06 14:30:19;;;;;;;5.20;3.17;;;;;;;;;;6209796;23;20398;-63
2023/04/06 14:32:45;;;;;;;3.10;1.90;;;;;;;;;;6210573;23;20413;-64
2023/04/06 14:35:11;;;;;;;3.50;2.47;;;;;;;;;;6207441;23;20895;-64
2023/04/06 14:37:37;;;;;;;3.00;2.87;;;;;;;;;;6207389;23;20455;-64